Time;durP1;ratioP1;P1;durP2;ratioP2;P2;SDS_P1;SDS_P2;PMS_P1;PMS_P2;Temp;Humidity;BMP_temperature;BMP_pressure;BME280_temperature;BME280_humidity;BME280_pressure;Samples;Min_cycle;Max_cycle;Signal;HPM_P1;HPM_P2
2022/12/13 00:01:35;;;;;;;;;;;;;;;10.15;48.62;100387.44;4974775;28;113006;-63
2022/12/13 00:04:03;;;;;;;;;;;;;;;10.15;48.11;100394.72;4977113;28;128076;-66
2022/12/13 00:06:29;;;;;;;;;;;;;;;10.16;48.34;100390.94;4942731;28;123280;-63
2022/12/13 00:08:55;;;;;;;;;;;;;;;10.16;48.57;100393.63;4942023;28;98222;-63
2022/12/13 00:11:21;;;;;;;;;;;;;;;10.16;48.60;100390.94;4958216;28;98059;-63
2022/12/13 00:13:47;;;;;;;;;;;;;;;10.15;48.10;100392.84;4957904;28;127453;-63
2022/12/13 00:16:15;;;;;;;;;;;;;;;10.15;48.72;100386.63;4943431;28;111277;-63
2022/12/13 00:18:41;;;;;;;;;;;;;;;10.15;48.53;100392.84;4965638;28;109109;-67
2022/12/13 00:21:08;;;;;;;;;;;;;;;10.15;48.48;100386.63;4958448;28;117642;-66
2022/12/13 00:23:33;;;;;;;;;;;;;;;10.15;48.35;100397.41;4943402;28;98488;-66
2022/12/13 00:26:04;;;;;;;;;;;;;;;10.14;48.43;100391.22;4973041;28;112173;-66
2022/12/13 00:28:30;;;;;;;;;;;;;;;10.15;48.03;100389.34;4957127;28;97974;-63
2022/12/13 00:30:57;;;;;;;;;;;;;;;10.14;48.61;100391.22;4944438;28;97991;-67
2022/12/13 00:33:23;;;;;;;;;;;;;;;10.14;48.71;100387.69;4952148;28;128576;-66
2022/12/13 00:35:49;;;;;;;;;;;;;;;10.14;48.64;100387.69;4943902;28;126689;-64
2022/12/13 00:38:15;;;;;;;;;;;;;;;10.13;48.55;100392.28;4959491;28;126972;-66
2022/12/13 00:40:41;;;;;;;;;;;;;;;10.13;48.08;100383.38;4956293;28;117596;-66
2022/12/13 00:43:07;;;;;;;;;;;;;;;10.13;48.37;100389.56;4973991;28;121708;-66
2022/12/13 00:45:33;;;;;;;;;;;;;;;10.13;48.47;100384.19;4925282;28;129163;-63
2022/12/13 00:47:59;;;;;;;;;;;;;;;10.12;48.15;100377.19;4943157;28;126933;-66
2022/12/13 00:50:25;;;;;;;;;;;;;;;10.11;48.44;100380.97;4944783;28;100166;-63
2022/12/13 00:52:50;;;;;;;;;;;;;;;10.13;48.59;100378.00;4960140;28;118651;-66
2022/12/13 00:55:16;;;;;;;;;;;;;;;10.13;48.24;100380.69;4938845;28;128633;-63
2022/12/13 00:57:42;;;;;;;;;;;;;;;10.12;48.03;100385.28;4926395;28;126290;-63
2022/12/13 01:00:09;;;;;;;;;;;;;;;10.12;48.25;100392.56;4975375;28;117708;-63
2022/12/13 01:02:35;;;;;;;;;;;;;;;10.11;48.59;100389.06;4978516;28;98520;-63
2022/12/13 01:05:00;;;;;;;;;;;;;;;10.12;48.18;100390.66;4943782;28;128571;-66
2022/12/13 01:07:26;;;;;;;;;;;;;;;10.11;48.39;100389.06;4942826;28;129115;-63
2022/12/13 01:09:52;;;;;;;;;;;;;;;10.11;48.18;100383.66;4944563;28;117713;-63
2022/12/13 01:12:18;;;;;;;;;;;;;;;10.11;48.48;100388.25;4942841;28;128426;-66
2022/12/13 01:14:44;;;;;;;;;;;;;;;10.12;48.36;100387.97;4967119;28;127433;-63
2022/12/13 01:17:10;;;;;;;;;;;;;;;10.11;48.49;100380.97;4959219;28;127721;-63
2022/12/13 01:19:36;;;;;;;;;;;;;;;10.11;48.46;100380.16;4957073;28;116846;-67
2022/12/13 01:22:04;;;;;;;;;;;;;;;10.11;48.32;100380.16;4936278;28;127114;-63
2022/12/13 01:24:30;;;;;;;;;;;;;;;10.10;48.06;100379.38;4942677;28;98980;-64
2022/12/13 01:26:56;;;;;;;;;;;;;;;10.11;48.27;100366.69;4942674;28;110856;-63
2022/12/13 01:29:22;;;;;;;;;;;;;;;10.11;48.60;100366.69;4941747;28;98167;-64
2022/12/13 01:31:48;;;;;;;;;;;;;;;10.10;48.44;100363.19;4947299;28;99747;-67
2022/12/13 01:34:15;;;;;;;;;;;;;;;10.11;48.33;100372.09;4967863;28;128050;-66
2022/12/13 01:36:42;;;;;;;;;;;;;;;10.10;48.57;100368.59;4978415;28;120289;-63
2022/12/13 01:39:09;;;;;;;;;;;;;;;10.10;48.13;100371.28;4941879;28;102547;-63
2022/12/13 01:41:35;;;;;;;;;;;;;;;10.09;48.08;100367.75;4963401;28;98772;-66
2022/12/13 01:44:05;;;;;;;;;;;;;;;10.09;47.94;100365.06;4945839;28;113129;-63
2022/12/13 01:46:32;;;;;;;;;;;;;;;10.08;48.43;100363.44;4962237;28;98508;-63
2022/12/13 01:49:09;;;;;;;;;;;;;;;10.08;48.49;100363.44;4964517;28;98652;-67
2022/12/13 01:51:50;;;;;;;;;;;;;;;10.08;47.99;100366.16;4967361;28;104273;-64
2022/12/13 01:54:17;;;;;;;;;;;;;;;10.08;47.95;100366.16;4967121;28;124590;-64
2022/12/13 01:56:46;;;;;;;;;;;;;;;10.07;48.52;100361.03;4945101;28;98238;-63
2022/12/13 01:59:12;;;;;;;;;;;;;;;10.08;48.02;100359.94;4976649;28;101562;-63
2022/12/13 02:01:38;;;;;;;;;;;;;;;10.07;48.40;100356.44;4960183;28;123726;-67
2022/12/13 02:04:04;;;;;;;;;;;;;;;10.07;48.33;100359.16;4978760;28;126302;-64
2022/12/13 02:06:43;;;;;;;;;;;;;;;10.07;48.31;100359.16;4960809;28;124952;-67
2022/12/13 02:09:09;;;;;;;;;;;;;;;10.08;48.08;100370.72;4959028;28;98177;-67
2022/12/13 02:11:35;;;;;;;;;;;;;;;10.08;48.23;100365.34;4980689;28;98432;-63
2022/12/13 02:14:02;;;;;;;;;;;;;;;10.07;47.95;100359.16;4958151;28;121410;-64
2022/12/13 02:16:56;;;;;;;;;;;;;;;10.08;48.18;100360.75;4947192;28;99271;-64
2022/12/13 02:19:58;;;;;;;;;;;;;;;10.07;48.29;100344.88;4979998;28;98087;-67
2022/12/13 02:22:55;;;;;;;;;;;;;;;10.07;48.34;100359.16;4944916;28;98560;-67
2022/12/13 02:25:35;;;;;;;;;;;;;;;10.07;48.26;100353.75;4947758;28;99562;-64
2022/12/13 02:28:29;;;;;;;;;;;;;;;10.06;48.64;100352.16;4928623;28;124815;-64
2022/12/13 02:31:05;;;;;;;;;;;;;;;10.07;48.12;100353.75;4965809;28;98056;-67
2022/12/13 02:33:40;;;;;;;;;;;;;;;10.07;48.11;100350.25;4946644;28;126980;-67
2022/12/13 02:36:20;;;;;;;;;;;;;;;10.05;47.85;100347.81;4975402;28;99044;-67
2022/12/13 02:38:57;;;;;;;;;;;;;;;10.07;48.60;100342.19;4959085;28;98429;-64
2022/12/13 02:41:33;;;;;;;;;;;;;;;10.06;48.21;100351.31;4972751;28;98087;-64
2022/12/13 02:44:06;;;;;;;;;;;;;;;10.06;48.59;100351.31;4961441;28;98629;-67
2022/12/13 02:46:36;;;;;;;;;;;;;;;10.06;48.51;100345.94;4959762;28;119324;-67
2022/12/13 02:49:02;;;;;;;;;;;;;;;10.07;48.27;100347.56;4945170;28;123688;-68
2022/12/13 02:51:28;;;;;;;;;;;;;;;10.06;48.12;100346.75;4978366;28;117675;-66
2022/12/13 02:53:54;;;;;;;;;;;;;;;10.06;48.51;100341.38;4961910;28;127883;-67
2022/12/13 02:56:20;;;;;;;;;;;;;;;10.06;48.16;100343.22;4944814;28;98741;-67
2022/12/13 02:58:50;;;;;;;;;;;;;;;10.06;48.24;100346.75;4961721;28;128189;-67
2022/12/13 03:01:41;;;;;;;;;;;;;;;10.06;48.46;100341.38;4961275;28;114128;-64
2022/12/13 03:06:28;;;;;;;;;;;;;;;10.06;47.91;100348.63;4977214;28;99471;-64
2022/12/13 03:07:28;;;;;;;;;;;;;;;10.03;47.98;100351.88;4962880;28;99217;-67
2022/12/13 03:10:03;;;;;;;;;;;;;;;10.00;48.16;100344.31;4960732;28;127228;-64
2022/12/13 03:15:43;;;;;;;;;;;;;;;9.97;47.82;100344.84;4961231;28;98777;-64
2022/12/13 03:18:15;;;;;;;;;;;;;;;9.93;47.89;100347.25;4942167;28;126824;-67
2022/12/13 03:20:49;;;;;;;;;;;;;;;9.92;48.25;100348.34;4944314;28;98193;-64
2022/12/13 03:23:16;;;;;;;;;;;;;;;9.91;48.39;100344.03;4957014;28;116597;-68
2022/12/13 03:25:42;;;;;;;;;;;;;;;9.90;48.43;100347.78;4944173;28;98546;-64
2022/12/13 03:28:08;;;;;;;;;;;;;;;9.89;48.01;100342.66;4966998;28;103205;-65
2022/12/13 03:30:34;;;;;;;;;;;;;;;9.88;47.95;100346.44;4978555;28;98093;-64
2022/12/13 03:33:00;;;;;;;;;;;;;;;9.87;47.98;100350.22;4975860;28;98140;-65
2022/12/13 03:35:26;;;;;;;;;;;;;;;9.87;48.41;100348.34;4939001;28;99971;-64
2022/12/13 03:37:52;;;;;;;;;;;;;;;9.87;48.54;100352.91;4943493;28;126837;-68
2022/12/13 03:40:18;;;;;;;;;;;;;;;9.87;47.96;100350.22;4958537;28;127659;-67
2022/12/13 03:42:44;;;;;;;;;;;;;;;9.86;47.89;100345.88;4948838;28;98090;-67
2022/12/13 03:45:10;;;;;;;;;;;;;;;9.84;47.86;100343.47;4972919;28;126048;-68
2022/12/13 03:47:36;;;;;;;;;;;;;;;9.82;47.86;100338.38;4957114;28;129341;-65
2022/12/13 03:50:02;;;;;;;;;;;;;;;9.82;48.50;100341.06;4944954;28;126920;-65
2022/12/13 03:52:27;;;;;;;;;;;;;;;9.82;47.98;100338.38;4960543;28;111958;-67
2022/12/13 03:54:53;;;;;;;;;;;;;;;9.81;47.99;100344.81;4942698;28;99063;-65
2022/12/13 03:57:19;;;;;;;;;;;;;;;9.81;47.76;100333.22;4955906;28;98413;-64
2022/12/13 03:59:45;;;;;;;;;;;;;;;9.81;48.23;100335.91;4937231;28;127465;-64
2022/12/13 04:02:11;;;;;;;;;;;;;;;9.80;48.03;100331.63;4941955;28;110062;-65
2022/12/13 04:04:37;;;;;;;;;;;;;;;9.79;48.00;100338.09;4959117;28;127841;-65
2022/12/13 04:07:03;;;;;;;;;;;;;;;9.79;47.83;100340.78;4921853;28;128611;-67
2022/12/13 04:09:29;;;;;;;;;;;;;;;9.78;48.11;100339.94;4960078;28;127447;-68
2022/12/13 04:14:39;;;;;;;;;;;;;;;9.76;47.70;100344.78;4964579;28;98916;-68
2022/12/13 04:17:05;;;;;;;;;;;;;;;9.76;48.11;100339.41;4943694;28;126028;-65
2022/12/13 04:19:31;;;;;;;;;;;;;;;9.77;47.90;100348.28;4939582;28;127887;-68
2022/12/13 04:21:57;;;;;;;;;;;;;;;9.75;48.50;100337.00;4960027;28;117659;-65
2022/12/13 04:24:24;;;;;;;;;;;;;;;9.74;48.15;100341.53;4951427;28;125598;-68
2022/12/13 04:26:49;;;;;;;;;;;;;;;9.75;48.42;100331.59;4943538;28;98184;-68
2022/12/13 04:29:15;;;;;;;;;;;;;;;9.74;47.92;100341.53;4943376;28;115240;-65
2022/12/13 04:31:41;;;;;;;;;;;;;;;9.73;48.14;100350.69;4955412;28;98294;-68
2022/12/13 04:34:07;;;;;;;;;;;;;;;9.73;47.72;100339.13;4956489;28;127436;-68
2022/12/13 04:36:33;;;;;;;;;;;;;;;9.72;47.61;100338.31;4947852;28;127952;-68
2022/12/13 04:39:01;;;;;;;;;;;;;;;9.72;47.66;100330.25;4941799;28;98335;-68
2022/12/13 04:41:26;;;;;;;;;;;;;;;9.72;47.70;100334.81;4959091;28;98408;-68
2022/12/13 04:43:53;;;;;;;;;;;;;;;9.74;48.00;100335.34;4958878;28;125444;-65
2022/12/13 04:46:19;;;;;;;;;;;;;;;9.71;47.96;100339.41;4945754;28;127882;-66
2022/12/13 04:48:45;;;;;;;;;;;;;;;9.72;47.71;100342.91;4956326;28;112210;-66
2022/12/13 04:51:11;;;;;;;;;;;;;;;9.72;47.78;100348.28;4958195;28;110708;-65
2022/12/13 04:53:37;;;;;;;;;;;;;;;9.71;47.72;100347.47;4959433;28;116773;-65
2022/12/13 04:56:03;;;;;;;;;;;;;;;9.72;48.47;100348.28;4941605;28;128182;-65
2022/12/13 04:58:29;;;;;;;;;;;;;;;9.71;48.17;100347.47;4944203;28;98684;-66
2022/12/13 05:00:55;;;;;;;;;;;;;;;9.72;47.91;100349.09;4957432;28;108316;-68
2022/12/13 05:03:22;;;;;;;;;;;;;;;9.71;47.92;100342.09;4961492;28;98456;-68
2022/12/13 05:05:47;;;;;;;;;;;;;;;9.71;47.79;100347.47;4944453;28;97934;-68
2022/12/13 05:08:13;;;;;;;;;;;;;;;9.72;48.39;100350.97;4957349;28;126430;-65
2022/12/13 05:10:39;;;;;;;;;;;;;;;9.72;47.81;100346.41;4957190;28;117161;-68
2022/12/13 05:13:05;;;;;;;;;;;;;;;9.72;48.38;100350.97;4938455;27;127966;-65
2022/12/13 05:15:32;;;;;;;;;;;;;;;9.72;48.47;100349.09;4959130;28;105946;-65
2022/12/13 05:18:02;;;;;;;;;;;;;;;9.72;48.42;100350.97;4955455;28;122229;-68
2022/12/13 05:20:28;;;;;;;;;;;;;;;9.72;47.77;100350.97;4976573;28;98152;-65
2022/12/13 05:22:57;;;;;;;;;;;;;;;9.71;48.19;100354.75;4941450;28;128087;-68
2022/12/13 05:25:24;;;;;;;;;;;;;;;9.71;48.35;100346.66;4974855;28;108318;-68
2022/12/13 05:27:50;;;;;;;;;;;;;;;9.71;47.71;100347.47;4940993;28;101662;-68
2022/12/13 05:30:16;;;;;;;;;;;;;;;9.71;47.91;100352.06;4959564;28;98313;-68
2022/12/13 05:32:42;;;;;;;;;;;;;;;9.71;47.98;100350.16;4958247;28;112830;-65
2022/12/13 05:35:08;;;;;;;;;;;;;;;9.72;48.16;100353.66;4973945;28;120420;-65
2022/12/13 05:37:34;;;;;;;;;;;;;;;9.72;48.16;100357.16;4959405;28;99013;-66
2022/12/13 05:40:00;;;;;;;;;;;;;;;9.72;47.75;100353.66;4957518;28;106749;-68
2022/12/13 05:42:26;;;;;;;;;;;;;;;9.71;47.87;100350.16;4955666;28;127680;-65
2022/12/13 05:44:52;;;;;;;;;;;;;;;9.72;48.40;100353.66;4959658;28;128171;-65
2022/12/13 05:47:18;;;;;;;;;;;;;;;9.72;47.99;100353.66;4957399;28;127533;-66
2022/12/13 05:49:44;;;;;;;;;;;;;;;9.71;47.96;100358.25;4958110;28;97919;-68
2022/12/13 05:52:20;;;;;;;;;;;;;;;9.71;47.63;100352.84;4960654;28;127748;-66
2022/12/13 05:54:46;;;;;;;;;;;;;;;9.71;48.28;100352.84;4959055;28;98557;-65
2022/12/13 05:57:12;;;;;;;;;;;;;;;9.71;48.02;100360.94;4956873;28;98149;-68
2022/12/13 05:59:38;;;;;;;;;;;;;;;9.71;47.87;100360.13;4972783;28;98122;-66
2022/12/13 06:02:04;;;;;;;;;;;;;;;9.71;47.94;100362.81;4941424;28;127476;-68
2022/12/13 06:04:30;;;;;;;;;;;;;;;9.70;48.60;100362.00;4972712;28;115911;-68
2022/12/13 06:06:56;;;;;;;;;;;;;;;9.70;47.95;100367.38;4975559;27;119698;-66
2022/12/13 06:09:22;;;;;;;;;;;;;;;9.70;47.92;100367.38;4953841;28;118075;-65
2022/12/13 06:11:48;;;;;;;;;;;;;;;9.70;48.25;100358.50;4935702;28;128373;-68
2022/12/13 06:14:14;;;;;;;;;;;;;;;9.70;47.89;100363.88;4950730;28;98553;-68
2022/12/13 06:16:40;;;;;;;;;;;;;;;9.69;48.12;100352.31;4940029;28;98263;-66
2022/12/13 06:19:07;;;;;;;;;;;;;;;9.69;48.40;100364.97;4954082;27;116739;-69
2022/12/13 06:21:33;;;;;;;;;;;;;;;9.68;47.98;100358.75;4920528;28;100046;-68
2022/12/13 06:23:59;;;;;;;;;;;;;;;9.71;48.14;100365.50;4960871;28;98606;-68
2022/12/13 06:26:25;;;;;;;;;;;;;;;9.76;47.75;100360.13;4959014;28;98399;-66
2022/12/13 06:28:51;;;;;;;;;;;;;;;9.85;48.31;100366.63;4942695;28;116824;-68
2022/12/13 06:31:17;;;;;;;;;;;;;;;9.92;48.16;100361.81;4970186;28;128279;-69
2022/12/13 06:33:43;;;;;;;;;;;;;;;9.99;47.57;100364.25;4942631;28;98082;-69
2022/12/13 06:36:09;;;;;;;;;;;;;;;10.03;47.77;100359.94;4958168;28;98186;-66
2022/12/13 06:38:35;;;;;;;;;;;;;;;10.07;47.82;100375.31;4938823;28;98263;-69
2022/12/13 06:41:27;;;;;;;;;;;;;;;10.13;48.46;100378.00;4935669;28;98177;-66
2022/12/13 06:43:53;;;;;;;;;;;;;;;10.16;48.39;100377.47;4950253;28;98365;-69
2022/12/13 06:46:19;;;;;;;;;;;;;;;10.20;47.82;100386.63;4955362;28;128718;-66
2022/12/13 06:48:45;;;;;;;;;;;;;;;10.21;48.27;100380.97;4970837;28;117878;-69
2022/12/13 06:51:11;;;;;;;;;;;;;;;10.23;47.96;100378.03;4939983;28;128340;-69
2022/12/13 06:53:39;;;;;;;;;;;;;;;10.25;48.00;100379.41;4942605;28;127914;-66
2022/12/13 06:56:06;;;;;;;;;;;;;;;10.28;48.27;100386.16;4957345;28;128084;-66
2022/12/13 06:58:33;;;;;;;;;;;;;;;10.29;47.98;100385.88;4952831;28;103223;-66
2022/12/13 07:01:12;;;;;;;;;;;;;;;10.30;48.19;100395.59;4938569;28;98173;-67
2022/12/13 07:03:39;;;;;;;;;;;;;;;10.31;48.11;100394.50;4958000;28;100860;-69
2022/12/13 07:06:12;;;;;;;;;;;;;;;10.33;48.04;100394.22;4939989;28;98050;-69
2022/12/13 07:08:39;;;;;;;;;;;;;;;10.34;48.01;100392.38;4955948;28;98306;-66
2022/12/13 07:11:05;;;;;;;;;;;;;;;10.34;48.40;100400.44;4920610;28;98067;-69
2022/12/13 07:13:32;;;;;;;;;;;;;;;10.36;48.09;100400.97;4940667;28;98442;-69
2022/12/13 07:15:59;;;;;;;;;;;;;;;10.35;47.98;100397.47;4942235;28;101418;-69
2022/12/13 07:18:24;;;;;;;;;;;;;;;10.35;48.36;100394.78;4942199;28;98313;-69
2022/12/13 07:20:50;;;;;;;;;;;;;;;10.35;47.86;100396.69;4942929;28;129400;-69
2022/12/13 07:23:16;;;;;;;;;;;;;;;10.35;47.99;100397.47;4960216;28;128895;-69
2022/12/13 07:25:49;;;;;;;;;;;;;;;10.36;47.74;100406.38;4959606;28;101975;-69
2022/12/13 07:28:15;;;;;;;;;;;;;;;10.36;48.15;100401.78;4955236;28;116219;-69
2022/12/13 07:30:41;;;;;;;;;;;;;;;10.36;47.96;100398.28;4940396;28;128272;-66
2022/12/13 07:33:07;;;;;;;;;;;;;;;10.36;48.18;100399.09;4939360;28;98121;-69
2022/12/13 07:35:33;;;;;;;;;;;;;;;10.37;48.07;100397.19;4969492;28;127530;-69
2022/12/13 07:37:59;;;;;;;;;;;;;;;10.37;48.27;100400.69;4942027;28;98361;-69
2022/12/13 07:40:25;;;;;;;;;;;;;;;10.37;48.30;100403.41;4933485;28;128102;-69
2022/12/13 07:42:54;;;;;;;;;;;;;;;10.38;47.65;100405.03;4920926;28;119083;-69
2022/12/13 07:45:21;;;;;;;;;;;;;;;10.39;47.81;100401.25;4920305;28;122540;-66
2022/12/13 07:47:47;;;;;;;;;;;;;;;10.41;47.97;100400.97;4920428;28;98285;-69
2022/12/13 07:50:13;;;;;;;;;;;;;;;10.41;47.77;100404.47;4921085;28;99156;-66
2022/12/13 07:52:39;;;;;;;;;;;;;;;10.41;48.06;100401.78;4937590;28;108280;-66
2022/12/13 07:55:06;;;;;;;;;;;;;;;10.44;47.70;100409.34;4936860;28;126859;-69
2022/12/13 07:57:32;;;;;;;;;;;;;;;10.47;47.89;100410.69;4921632;28;98817;-66
2022/12/13 07:59:58;;;;;;;;;;;;;;;10.48;47.59;100413.13;4923197;28;115597;-69
2022/12/13 08:02:24;;;;;;;;;;;;;;;10.50;47.82;100410.16;4940106;28;104560;-66
2022/12/13 08:04:50;;;;;;;;;;;;;;;10.52;47.73;100411.50;4931614;28;100039;-69
2022/12/13 08:07:16;;;;;;;;;;;;;;;10.54;47.80;100406.66;4917824;28;116522;-69
2022/12/13 08:09:42;;;;;;;;;;;;;;;10.57;47.96;100408.00;4917523;28;127431;-66
2022/12/13 08:12:07;;;;;;;;;;;;;;;10.59;47.72;100407.75;4918611;28;126555;-69
2022/12/13 08:14:33;;;;;;;;;;;;;;;10.60;47.58;100412.84;4922656;28;126734;-69
2022/12/13 08:16:59;;;;;;;;;;;;;;;10.60;47.47;100410.16;4937438;28;98259;-69
2022/12/13 08:19:25;;;;;;;;;;;;;;;10.63;47.46;100409.63;4922706;28;98345;-69
2022/12/13 08:21:51;;;;;;;;;;;;;;;10.64;47.93;100415.81;4916231;28;128114;-66
2022/12/13 08:24:18;;;;;;;;;;;;;;;10.65;47.85;100417.44;4917650;28;127399;-69
2022/12/13 08:26:44;;;;;;;;;;;;;;;10.67;47.66;100409.91;4919166;28;98454;-69
2022/12/13 08:29:11;;;;;;;;;;;;;;;10.69;48.02;100413.97;4934185;28;123607;-69
2022/12/13 08:31:37;;;;;;;;;;;;;;;10.72;47.91;100424.19;4920387;28;99741;-66
2022/12/13 08:34:03;;;;;;;;;;;;;;;10.76;47.66;100416.38;4936212;28;119246;-69
2022/12/13 08:36:29;;;;;;;;;;;;;;;10.80;47.49;100420.16;4918367;28;117016;-69
2022/12/13 08:38:55;;;;;;;;;;;;;;;10.86;47.54;100420.97;4921901;28;126554;-66
2022/12/13 08:41:21;;;;;;;;;;;;;;;10.91;47.42;100413.69;4933464;28;98404;-69
2022/12/13 08:43:47;;;;;;;;;;;;;;;11.00;47.33;100409.38;4937142;28;125666;-69
2022/12/13 08:46:13;;;;;;;;;;;;;;;11.17;47.42;100425.25;4923548;28;116497;-69
2022/12/13 08:48:39;;;;;;;;;;;;;;;11.36;47.16;100416.56;4971212;28;127990;-69
2022/12/13 08:51:11;;;;;;;;;;;;;;;11.72;46.75;100417.31;4954940;28;116895;-67
2022/12/13 08:53:37;;;;;;;;;;;;;;;11.93;46.85;100413.44;4956587;28;98406;-69
2022/12/13 08:56:04;;;;;;;;;;;;;;;12.04;46.83;100411.50;4941539;28;98078;-67
2022/12/13 08:58:30;;;;;;;;;;;;;;;12.09;46.77;100411.47;4949451;28;98661;-70
2022/12/13 09:00:56;;;;;;;;;;;;;;;12.41;46.40;100408.31;4956284;28;99876;-70
2022/12/13 09:03:22;;;;;;;;;;;;;;;12.89;46.05;100405.78;4937976;28;106779;-67
2022/12/13 09:05:48;;;;;;;;;;;;;;;13.16;46.38;100402.53;4954948;28;114527;-66
2022/12/13 09:08:14;;;;;;;;;;;;;;;13.59;46.06;100401.84;4937585;28;128366;-69
2022/12/13 09:10:40;;;;;;;;;;;;;;;13.98;45.62;100407.06;4970465;28;127376;-66
2022/12/13 09:13:06;;;;;;;;;;;;;;;14.20;45.85;100407.31;4939555;28;99386;-69
2022/12/13 09:15:32;;;;;;;;;;;;;;;14.50;45.77;100402.56;4940797;28;98174;-69
2022/12/13 09:17:58;;;;;;;;;;;;;;;14.69;45.96;100405.25;4957188;28;126067;-66
2022/12/13 09:20:24;;;;;;;;;;;;;;;14.59;46.08;100410.84;4940309;28;128028;-69
2022/12/13 09:22:50;;;;;;;;;;;;;;;14.49;46.14;100409.88;4938155;28;127650;-69
2022/12/13 09:25:16;;;;;;;;;;;;;;;14.41;46.46;100407.00;4938460;28;98328;-65
2022/12/13 09:27:42;;;;;;;;;;;;;;;14.34;46.30;100398.44;4937795;28;128165;-69
2022/12/13 09:30:11;;;;;;;;;;;;;;;14.24;46.78;100404.81;4936594;28;128191;-69
2022/12/13 09:32:39;;;;;;;;;;;;;;;14.19;46.46;100413.03;4941389;28;98321;-69
2022/12/13 09:35:06;;;;;;;;;;;;;;;14.12;46.79;100420.72;4928861;27;99952;-69
2022/12/13 09:37:32;;;;;;;;;;;;;;;14.07;46.88;100420.75;4955048;28;120441;-66
2022/12/13 09:39:57;;;;;;;;;;;;;;;14.02;47.01;100413.50;4955427;28;128214;-66
2022/12/13 09:42:25;;;;;;;;;;;;;;;14.03;46.58;100422.44;4972353;28;126845;-69
2022/12/13 09:44:56;;;;;;;;;;;;;;;14.08;46.73;100416.97;4959995;28;114893;-66
2022/12/13 09:47:30;;;;;;;;;;;;;;;14.05;46.94;100404.00;4937481;28;123380;-69
2022/12/13 09:49:57;;;;;;;;;;;;;;;14.00;46.74;100404.88;4938171;28;98149;-69
2022/12/13 09:52:23;;;;;;;;;;;;;;;13.92;47.08;100406.34;4945337;28;109226;-69
2022/12/13 09:54:54;;;;;;;;;;;;;;;13.87;47.22;100408.28;4938717;28;97930;-69
2022/12/13 09:57:30;;;;;;;;;;;;;;;13.89;46.82;100408.81;4923186;28;98898;-69
2022/12/13 09:59:55;;;;;;;;;;;;;;;13.87;47.28;100408.28;4925773;28;125648;-69
2022/12/13 10:02:27;;;;;;;;;;;;;;;13.81;46.87;100404.84;4959090;28;127563;-69
2022/12/13 10:04:56;;;;;;;;;;;;;;;13.74;47.31;100398.97;4974504;28;98306;-66
2022/12/13 10:07:23;;;;;;;;;;;;;;;13.67;47.32;100406.63;4943128;28;126002;-69
2022/12/13 10:09:51;;;;;;;;;;;;;;;13.62;47.36;100404.00;4969447;28;128425;-69
2022/12/13 10:12:17;;;;;;;;;;;;;;;13.56;47.12;100405.97;4940070;28;126327;-70
2022/12/13 10:14:48;;;;;;;;;;;;;;;13.49;47.21;100394.66;4941361;28;117531;-66
2022/12/13 10:17:17;;;;;;;;;;;;;;;13.41;47.11;100398.81;4942769;28;98543;-69
2022/12/13 10:19:44;;;;;;;;;;;;;;;13.34;47.27;100387.50;4955824;28;99515;-66
2022/12/13 10:22:14;;;;;;;;;;;;;;;13.27;47.14;100395.97;4943454;28;121906;-67
2022/12/13 10:24:52;;;;;;;;;;;;;;;13.17;47.66;100390.66;4958979;28;98234;-66
2022/12/13 10:27:44;;;;;;;;;;;;;;;13.11;47.26;100393.69;4943241;28;99444;-69
2022/12/13 10:30:21;;;;;;;;;;;;;;;13.02;47.58;100382.69;4960115;28;99149;-67
2022/12/13 10:32:57;;;;;;;;;;;;;;;12.95;47.19;100385.72;4943337;28;98390;-69
2022/12/13 10:35:28;;;;;;;;;;;;;;;12.89;47.72;100386.84;4945731;28;113391;-67
2022/12/13 10:37:54;;;;;;;;;;;;;;;12.86;47.38;100382.00;4927019;28;99392;-70
2022/12/13 10:40:32;;;;;;;;;;;;;;;12.82;47.73;100378.25;4957501;28;98763;-66
2022/12/13 10:43:20;;;;;;;;;;;;;;;12.78;47.67;100369.91;4958996;28;98251;-66
2022/12/13 10:45:56;;;;;;;;;;;;;;;12.75;47.68;100378.59;4971167;28;98695;-67
2022/12/13 10:48:25;;;;;;;;;;;;;;;12.71;47.62;100379.44;4958369;28;98202;-70
2022/12/13 10:51:03;;;;;;;;;;;;;;;12.69;47.65;100376.19;4945959;28;98188;-66
2022/12/13 10:53:31;;;;;;;;;;;;;;;12.65;47.61;100378.66;4939453;28;97965;-70
2022/12/13 10:55:57;;;;;;;;;;;;;;;12.64;47.64;100373.53;4944560;28;97878;-67
2022/12/13 10:58:23;;;;;;;;;;;;;;;12.62;47.53;100375.72;4939352;28;127765;-67
2022/12/13 11:00:49;;;;;;;;;;;;;;;12.60;47.52;100375.19;4955610;28;125022;-67
2022/12/13 11:03:29;;;;;;;;;;;;;;;12.57;47.50;100371.16;4973664;28;99616;-67
2022/12/13 11:06:02;;;;;;;;;;;;;;;12.55;47.40;100369.84;4958962;28;98133;-70
2022/12/13 11:08:29;;;;;;;;;;;;;;;12.52;47.27;100365.78;4956336;28;99037;-67
2022/12/13 11:11:01;;;;;;;;;;;;;;;12.50;47.81;100365.28;4950110;28;99617;-70
2022/12/13 11:13:50;;;;;;;;;;;;;;;12.46;47.53;100359.63;4961642;28;97882;-70
2022/12/13 11:16:22;;;;;;;;;;;;;;;12.43;47.47;100365.59;4961356;28;98281;-67
2022/12/13 11:18:56;;;;;;;;;;;;;;;12.39;47.46;100369.16;4972087;28;98210;-66
2022/12/13 11:21:29;;;;;;;;;;;;;;;12.36;47.63;100362.41;4942542;28;98459;-67
2022/12/13 11:23:56;;;;;;;;;;;;;;;12.32;47.55;100360.53;4939947;28;98497;-67
2022/12/13 11:26:22;;;;;;;;;;;;;;;12.29;47.69;100356.50;4958940;28;114962;-69
2022/12/13 11:29:27;;;;;;;;;;;;;;;12.25;47.75;100356.25;4957842;28;98352;-70
2022/12/13 11:32:00;;;;;;;;;;;;;;;12.22;47.61;100364.94;4972266;27;128957;-69
2022/12/13 11:34:34;;;;;;;;;;;;;;;12.19;47.58;100356.59;4957320;28;98245;-66
2022/12/13 11:37:22;;;;;;;;;;;;;;;12.16;47.62;100349.84;4976808;28;97869;-70
2022/12/13 11:39:57;;;;;;;;;;;;;;;12.13;47.83;100342.28;4973349;28;98631;-66
2022/12/13 11:42:39;;;;;;;;;;;;;;;12.09;47.70;100346.63;4941827;28;99417;-69
2022/12/13 11:45:23;;;;;;;;;;;;;;;12.06;47.58;100349.09;4957227;28;98276;-70
2022/12/13 11:48:03;;;;;;;;;;;;;;;12.02;47.57;100341.56;4936865;28;107193;-67
2022/12/13 11:50:32;;;;;;;;;;;;;;;11.97;47.63;100336.16;4956699;28;98390;-67
2022/12/13 11:52:59;;;;;;;;;;;;;;;11.97;47.66;100340.75;4942852;28;124862;-66
2022/12/13 11:55:43;;;;;;;;;;;;;;;11.93;47.75;100340.50;4939612;28;117032;-67
2022/12/13 11:58:29;;;;;;;;;;;;;;;11.91;47.76;100350.81;4956300;28;98567;-66
2022/12/13 12:01:07;;;;;;;;;;;;;;;11.88;47.51;100347.84;4942690;28;124173;-70
2022/12/13 12:03:55;;;;;;;;;;;;;;;11.86;47.79;100350.00;4961625;28;120954;-70
2022/12/13 12:06:26;;;;;;;;;;;;;;;11.84;47.71;100350.31;4925450;28;99399;-67
2022/12/13 12:08:56;;;;;;;;;;;;;;;11.82;47.55;100357.81;4940206;28;108817;-66
2022/12/13 12:11:38;;;;;;;;;;;;;;;11.80;47.69;100357.31;4962000;28;98309;-70
2022/12/13 12:14:18;;;;;;;;;;;;;;;11.77;47.72;100355.97;4932553;28;107310;-70
2022/12/13 12:16:57;;;;;;;;;;;;;;;11.75;47.81;100363.56;4955352;28;99779;-66
2022/12/13 12:19:27;;;;;;;;;;;;;;;11.73;47.70;100363.00;4940777;28;107355;-70
2022/12/13 12:22:17;;;;;;;;;;;;;;;11.71;47.82;100362.50;4960796;28;98514;-70
2022/12/13 12:24:59;;;;;;;;;;;;;;;11.69;47.68;100361.13;4970208;28;123068;-67
2022/12/13 12:27:39;;;;;;;;;;;;;;;11.68;47.69;100370.34;4956768;28;122378;-67
2022/12/13 12:30:18;;;;;;;;;;;;;;;11.67;47.89;100363.28;4959422;28;115328;-70
2022/12/13 12:33:03;;;;;;;;;;;;;;;11.65;47.77;100366.28;4942097;28;98519;-67
2022/12/13 12:35:59;;;;;;;;;;;;;;;11.64;47.75;100369.28;4974901;28;99489;-70
2022/12/13 12:38:48;;;;;;;;;;;;;;;11.63;47.74;100362.22;4973314;28;98749;-70
2022/12/13 12:41:50;;;;;;;;;;;;;;;11.60;47.76;100358.22;4975163;28;98563;-66
2022/12/13 12:44:32;;;;;;;;;;;;;;;11.59;47.78;100361.16;4942203;28;123007;-66
2022/12/13 12:47:17;;;;;;;;;;;;;;;11.57;47.81;100357.97;4973913;28;99191;-66
2022/12/13 12:50:29;;;;;;;;;;;;;;;11.55;47.82;100350.94;4958168;28;99232;-70
2022/12/13 12:53:18;;;;;;;;;;;;;;;11.54;47.63;100354.72;4896196;28;98778;-70